createdAt,value
2023-04-19T00:01:11.404Z,102729.56
2023-04-19T00:03:38.453Z,102724.44
2023-04-19T00:06:08.362Z,102729.34
2023-04-19T00:08:34.997Z,102731.78
2023-04-19T00:11:01.700Z,102735.41
2023-04-19T00:13:28.667Z,102726.88
2023-04-19T00:15:58.551Z,102722.44
2023-04-19T00:18:25.329Z,102722.69
2023-04-19T00:20:52.217Z,102725.31
2023-04-19T00:23:18.946Z,102711.13
2023-04-19T00:25:52.069Z,102716.94
2023-04-19T00:28:21.023Z,102718.38
2023-04-19T00:30:50.106Z,102710.97
2023-04-19T00:33:16.730Z,102722.59
2023-04-19T00:35:43.495Z,102719.75
2023-04-19T00:38:12.902Z,102710.00
2023-04-19T00:40:39.719Z,102716.13
2023-04-19T00:43:06.619Z,102716.13
2023-04-19T00:45:37.062Z,102719.56
2023-04-19T00:48:06.801Z,102718.56
2023-04-19T00:50:33.720Z,102700.56
2023-04-19T00:53:02.911Z,102707.63
2023-04-19T00:55:29.829Z,102703.50
2023-04-19T00:57:57.471Z,102707.53
2023-04-19T01:00:24.156Z,102702.84
2023-04-19T01:02:53.761Z,102712.47
2023-04-19T01:05:20.715Z,102704.50
2023-04-19T01:07:49.709Z,102695.75
2023-04-19T01:10:16.764Z,102705.38
2023-04-19T01:12:43.408Z,102704.41
2023-04-19T01:15:10.865Z,102691.16
2023-04-19T01:17:39.950Z,102705.25
2023-04-19T01:20:08.286Z,102697.19
2023-04-19T01:22:37.812Z,102698.84
2023-04-19T01:25:05.336Z,102696.88
2023-04-19T01:27:32.054Z,102711.38
2023-04-19T01:29:59.035Z,102697.75
2023-04-19T01:32:28.443Z,102696.88
2023-04-19T01:34:55.267Z,102696.88
2023-04-19T01:37:24.385Z,102692.41
2023-04-19T01:39:51.168Z,102693.06
2023-04-19T01:42:17.955Z,102692.97
2023-04-19T01:44:47.017Z,102684.88
2023-04-19T01:47:13.857Z,102680.28
2023-04-19T01:49:40.941Z,102689.13
2023-04-19T01:52:10.255Z,102674.94
2023-04-19T01:54:37.030Z,102687.06
2023-04-19T01:57:06.078Z,102686.00
2023-04-19T01:59:32.871Z,102680.09
2023-04-19T02:01:59.886Z,102689.59
2023-04-19T02:04:26.763Z,102684.22
2023-04-19T02:06:53.441Z,102685.13
2023-04-19T02:09:20.186Z,102684.91
2023-04-19T02:11:46.853Z,102681.28
2023-04-19T02:14:13.834Z,102684.13
2023-04-19T02:16:40.873Z,102682.41
2023-04-19T02:19:07.684Z,102682.72
2023-04-19T02:21:34.475Z,102678.31
2023-04-19T02:24:03.938Z,102676.03
2023-04-19T02:26:30.729Z,102674.50
2023-04-19T02:28:57.525Z,102682.78
2023-04-19T02:31:24.301Z,102682.88
2023-04-19T02:33:51.265Z,102669.53
2023-04-19T02:36:17.936Z,102677.94
2023-04-19T02:38:44.679Z,102679.31
2023-04-19T02:41:11.552Z,102671.53
2023-04-19T02:43:38.199Z,102671.53
2023-04-19T02:46:04.911Z,102670.00
2023-04-19T02:48:31.759Z,102674.66
2023-04-19T02:50:58.755Z,102673.72
2023-04-19T02:53:25.745Z,102662.22
2023-04-19T02:55:52.513Z,102683.41
2023-04-19T02:58:19.215Z,102684.31
2023-04-19T03:00:48.309Z,102684.22
2023-04-19T03:03:17.538Z,102670.13
2023-04-19T03:05:44.296Z,102674.56
2023-04-19T03:08:13.389Z,102668.44
2023-04-19T03:10:40.249Z,102683.41
2023-04-19T03:13:06.870Z,102683.31
2023-04-19T03:15:34.004Z,102670.97
2023-04-19T03:18:00.876Z,102676.03
2023-04-19T03:20:27.603Z,102685.84
2023-04-19T03:22:54.547Z,102677.56
2023-04-19T03:25:21.515Z,102680.28
2023-04-19T03:27:48.326Z,102676.03
2023-04-19T03:30:15.402Z,102661.38
2023-04-19T03:32:44.407Z,102672.19
2023-04-19T03:35:11.259Z,102667.53
2023-04-19T03:37:38.085Z,102654.31
2023-04-19T03:40:07.347Z,102666.63
2023-04-19T03:42:34.190Z,102662.38
2023-04-19T03:45:01.006Z,102660.53
2023-04-19T03:47:27.961Z,102673.84
2023-04-19T03:49:54.680Z,102664.22
2023-04-19T03:52:21.481Z,102655.47
2023-04-19T03:54:50.374Z,102668.59
2023-04-19T03:57:17.803Z,102681.47
2023-04-19T03:59:44.626Z,102675.13
2023-04-19T04:02:11.567Z,102650.63
2023-04-19T04:04:41.050Z,102655.88
2023-04-19T04:07:10.751Z,102664.16
2023-04-19T04:09:37.467Z,102672.03
2023-04-19T04:12:06.636Z,102667.00
2023-04-19T04:14:33.320Z,102679.66
2023-04-19T04:17:00.001Z,102677.13
2023-04-19T04:19:27.096Z,102671.31
2023-04-19T04:21:54.072Z,102668.69
2023-04-19T04:24:22.358Z,102678.94
2023-04-19T04:26:50.067Z,102666.41
2023-04-19T04:29:19.948Z,102546.47
2023-04-19T04:31:46.699Z,102664.50
2023-04-19T04:34:14.395Z,102683.47
2023-04-19T04:36:41.706Z,102683.28
2023-04-19T04:39:12.487Z,102680.66
2023-04-19T04:41:42.260Z,102656.53
2023-04-19T04:44:12.963Z,102682.34
2023-04-19T04:46:40.255Z,102677.19
2023-04-19T04:49:07.499Z,102694.28
2023-04-19T04:51:35.574Z,102674.94
2023-04-19T04:54:05.486Z,102686.69
2023-04-19T04:56:32.696Z,102682.03
2023-04-19T04:58:59.644Z,102669.78
2023-04-19T05:01:26.303Z,102688.47
2023-04-19T05:03:53.236Z,102678.22
2023-04-19T05:06:22.439Z,102692.91
2023-04-19T05:08:51.525Z,102685.09
2023-04-19T05:11:20.955Z,102704.78
2023-04-19T05:13:48.090Z,102690.00
2023-04-19T05:16:15.332Z,102679.84
2023-04-19T05:18:42.334Z,102710.63
2023-04-19T05:21:12.034Z,102687.34
2023-04-19T05:23:39.131Z,102682.81
2023-04-19T05:26:06.407Z,102683.03
2023-04-19T05:28:35.651Z,102690.88
2023-04-19T05:31:02.429Z,102703.81
2023-04-19T05:33:29.269Z,102694.59
2023-04-19T05:35:56.301Z,102709.25
2023-04-19T05:38:23.292Z,102692.03
2023-04-19T05:40:52.853Z,102672.72
2023-04-19T05:43:19.767Z,102687.88
2023-04-19T05:45:46.721Z,102700.44
2023-04-19T05:48:16.091Z,102686.00
2023-04-19T05:50:45.116Z,102634.22
2023-04-19T05:53:13.313Z,102684.34
2023-04-19T05:55:40.360Z,102695.97
2023-04-19T05:58:07.671Z,102682.50
2023-04-19T06:00:38.225Z,102674.47
2023-04-19T06:03:08.056Z,102678.16
2023-04-19T06:05:35.207Z,102686.66
2023-04-19T06:08:05.187Z,102692.97
2023-04-19T06:10:47.914Z,102679.78
2023-04-19T06:13:21.072Z,102694.56
2023-04-19T06:15:48.112Z,102685.88
2023-04-19T06:18:19.223Z,102690.94
2023-04-19T06:20:46.830Z,102682.69
2023-04-19T06:23:18.733Z,102686.72
2023-04-19T06:25:49.104Z,102674.03
2023-04-19T06:28:16.285Z,102677.19
2023-04-19T06:30:43.349Z,102643.66
2023-04-19T06:33:10.102Z,102679.25
2023-04-19T06:35:36.925Z,102652.69
2023-04-19T06:38:06.536Z,102665.09
2023-04-19T06:40:38.998Z,102683.09
2023-04-19T06:43:06.078Z,102688.88
2023-04-19T06:45:33.526Z,102673.97
2023-04-19T06:48:02.623Z,102676.34
2023-04-19T06:50:32.535Z,102678.59
2023-04-19T06:53:04.084Z,102687.34
2023-04-19T06:55:31.874Z,102688.91
2023-04-19T06:57:59.019Z,102666.53
2023-04-19T07:00:26.624Z,102677.34
2023-04-19T07:02:53.671Z,102676.28
2023-04-19T07:05:20.677Z,102679.09
2023-04-19T07:07:50.106Z,102643.56
2023-04-19T07:10:17.688Z,102670.94
2023-04-19T07:12:45.828Z,102667.41
2023-04-19T07:15:15.287Z,102683.88
2023-04-19T07:17:47.595Z,102673.31
2023-04-19T07:20:14.464Z,102670.06
2023-04-19T07:22:41.863Z,102647.84
2023-04-19T07:25:09.358Z,102671.22
2023-04-19T07:27:36.239Z,102654.81
2023-04-19T07:30:03.106Z,102674.22
2023-04-19T07:32:31.875Z,102656.69
2023-04-19T07:34:58.930Z,102675.25
2023-04-19T07:37:25.873Z,102636.94
2023-04-19T07:39:52.709Z,102672.78
2023-04-19T07:42:19.761Z,102673.22
2023-04-19T07:44:46.480Z,102660.88
2023-04-19T07:47:13.388Z,102684.09
2023-04-19T07:49:44.502Z,102678.03
2023-04-19T07:52:12.227Z,102668.94
2023-04-19T07:54:44.404Z,102677.09
2023-04-19T07:57:11.080Z,102677.09
2023-04-19T07:59:37.822Z,102668.25
2023-04-19T08:02:04.650Z,102673.78
2023-04-19T08:04:31.794Z,102675.69
2023-04-19T08:06:59.487Z,102668.16
2023-04-19T08:09:26.346Z,102667.72
2023-04-19T08:11:57.830Z,102674.16
2023-04-19T08:14:37.629Z,102643.09
2023-04-19T08:17:24.614Z,102662.03
2023-04-19T08:19:53.214Z,102676.94
2023-04-19T08:22:21.783Z,102651.88
2023-04-19T08:24:52.466Z,102674.00
2023-04-19T08:27:19.682Z,102657.03
2023-04-19T08:29:46.991Z,102667.88
2023-04-19T08:32:13.941Z,102661.16
2023-04-19T08:34:40.928Z,102670.00
2023-04-19T08:37:10.051Z,102654.34
2023-04-19T08:39:36.939Z,102663.47
2023-04-19T08:42:10.928Z,102660.09
2023-04-19T08:44:49.221Z,102638.09
2023-04-19T08:47:31.167Z,102653.94
2023-04-19T08:50:24.063Z,102659.47
2023-04-19T08:53:00.663Z,102634.31
2023-04-19T08:55:35.795Z,102629.53
2023-04-19T08:58:12.336Z,102634.88
2023-04-19T09:00:45.820Z,102664.22
2023-04-19T09:03:12.663Z,102653.22
2023-04-19T09:05:39.865Z,102651.03
2023-04-19T09:08:28.948Z,102666.94
2023-04-19T09:10:58.178Z,102659.25
2023-04-19T09:13:27.997Z,102638.88
2023-04-19T09:15:58.053Z,102660.28
2023-04-19T09:18:30.564Z,102651.13
2023-04-19T09:20:58.324Z,102668.13
2023-04-19T09:23:28.577Z,102633.63
2023-04-19T09:28:34.187Z,102660.91
2023-04-19T09:31:33.361Z,102662.09
2023-04-19T09:34:14.656Z,102654.28
2023-04-19T09:36:41.626Z,102682.97
2023-04-19T09:39:08.543Z,102674.72
2023-04-19T09:41:38.995Z,102653.94
2023-04-19T09:46:46.500Z,102646.75
2023-04-19T09:49:33.634Z,102666.00
2023-04-19T09:52:10.263Z,102643.84
2023-04-19T09:54:37.906Z,102660.22
2023-04-19T09:57:07.438Z,102655.25
2023-04-19T09:59:36.388Z,102668.78
2023-04-19T10:02:05.157Z,102654.75
2023-04-19T10:04:57.124Z,102647.25
2023-04-19T10:07:30.099Z,102660.53
2023-04-19T10:10:11.908Z,102644.69
2023-04-19T10:13:15.444Z,102645.53
2023-04-19T10:15:50.122Z,102641.75
2023-04-19T10:18:18.332Z,102650.84
2023-04-19T10:20:54.509Z,102638.75
2023-04-19T10:23:23.790Z,102644.47
2023-04-19T10:25:56.802Z,102643.56
2023-04-19T10:28:23.682Z,102635.84
2023-04-19T10:31:02.657Z,102620.69
2023-04-19T10:33:32.326Z,102651.81
2023-04-19T10:35:59.816Z,102630.25
2023-04-19T10:38:40.235Z,102655.84
2023-04-19T10:41:13.656Z,102627.25
2023-04-19T10:44:11.767Z,102639.84
2023-04-19T10:46:41.616Z,102637.44
2023-04-19T10:49:13.706Z,102640.88
2023-04-19T10:51:44.454Z,102626.00
2023-04-19T10:54:31.606Z,102634.69
2023-04-19T10:57:02.749Z,102560.44
2023-04-19T10:59:32.777Z,102643.09
2023-04-19T11:02:02.141Z,102614.47
2023-04-19T11:04:32.283Z,102632.19
2023-04-19T11:07:05.031Z,102632.53
2023-04-19T11:09:36.025Z,102624.94
2023-04-19T11:12:08.221Z,102621.94
2023-04-19T11:14:36.988Z,102632.69
2023-04-19T11:17:16.605Z,102620.75
2023-04-19T11:19:45.219Z,102600.50
2023-04-19T11:22:11.925Z,102618.13
2023-04-19T11:24:38.532Z,102637.47
2023-04-19T11:27:09.524Z,102615.75
2023-04-19T11:29:36.175Z,102624.72
2023-04-19T11:32:05.075Z,102597.44
2023-04-19T11:34:37.183Z,102605.91
2023-04-19T11:37:03.876Z,102620.88
2023-04-19T11:39:32.965Z,102602.91
2023-04-19T11:41:59.627Z,102606.59
2023-04-19T11:44:26.337Z,102597.00
2023-04-19T11:47:00.352Z,102589.75
2023-04-19T11:49:31.225Z,102580.66
2023-04-19T11:52:04.645Z,102575.84
2023-04-19T11:54:32.070Z,102567.44
2023-04-19T11:57:03.436Z,102559.69
2023-04-19T11:59:32.458Z,102558.09
2023-04-19T12:02:12.799Z,102564.06
2023-04-19T12:04:42.252Z,102566.97
2023-04-19T12:07:10.563Z,102555.34
2023-04-19T12:09:38.665Z,102584.56
2023-04-19T12:12:05.394Z,102562.72
2023-04-19T12:14:32.374Z,102562.84
2023-04-19T12:17:05.866Z,102554.91
2023-04-19T12:19:37.445Z,102544.06
2023-04-19T12:22:17.489Z,102531.09
2023-04-19T12:24:44.126Z,102511.66
2023-04-19T12:27:11.502Z,102527.91
2023-04-19T12:29:39.227Z,102528.66
2023-04-19T12:32:10.884Z,102529.34
2023-04-19T12:34:37.557Z,102535.00
2023-04-19T12:37:06.933Z,102534.00
2023-04-19T12:39:33.709Z,102531.97
2023-04-19T12:42:01.409Z,102524.25
2023-04-19T12:44:30.650Z,102533.41
2023-04-19T12:46:57.811Z,102518.16
2023-04-19T12:49:24.707Z,102523.69
2023-04-19T12:51:51.409Z,102511.09
2023-04-19T12:54:18.078Z,102511.81
2023-04-19T12:56:44.631Z,102509.09
2023-04-19T12:59:13.633Z,102476.78
2023-04-19T13:01:40.778Z,102476.63
2023-04-19T13:04:11.630Z,102496.28
2023-04-19T13:06:41.082Z,102484.59
2023-04-19T13:09:14.159Z,102485.00
2023-04-19T13:11:41.850Z,102490.75
2023-04-19T13:14:11.432Z,102476.81
2023-04-19T13:16:40.322Z,102475.44
2023-04-19T13:19:11.726Z,102485.66
2023-04-19T13:21:41.559Z,102482.09
2023-04-19T13:24:08.430Z,102456.06
2023-04-19T13:26:35.034Z,102476.53
2023-04-19T13:29:01.708Z,102469.81
2023-04-19T13:31:31.151Z,102461.81
2023-04-19T13:34:00.744Z,102457.84
2023-04-19T13:36:28.214Z,102457.19
2023-04-19T13:38:57.390Z,102467.41
2023-04-19T13:41:24.039Z,102447.81
2023-04-19T13:43:50.573Z,102447.28
2023-04-19T13:46:19.480Z,102459.31
2023-04-19T13:48:49.541Z,102448.44
2023-04-19T13:51:16.159Z,102448.81
2023-04-19T13:53:42.736Z,102459.88
2023-04-19T13:56:09.682Z,102446.75
2023-04-19T13:58:37.440Z,102425.69
2023-04-19T14:01:04.147Z,102436.19
2023-04-19T14:03:31.714Z,102433.28
2023-04-19T14:06:03.258Z,102418.34
2023-04-19T14:08:29.788Z,102428.81
2023-04-19T14:10:58.653Z,102415.47
2023-04-19T14:13:25.246Z,102402.47
2023-04-19T14:15:51.877Z,102416.63
2023-04-19T14:18:18.437Z,102390.59
2023-04-19T14:20:45.681Z,102405.78
2023-04-19T14:23:14.654Z,102405.09
2023-04-19T14:25:41.265Z,102400.66
2023-04-19T14:28:07.893Z,102385.94
2023-04-19T14:30:34.700Z,102324.28
2023-04-19T14:33:03.966Z,102413.97
2023-04-19T14:35:31.127Z,102391.91
2023-04-19T14:37:57.758Z,102405.19
2023-04-19T14:40:24.567Z,102371.78
2023-04-19T14:42:53.624Z,102441.53
2023-04-19T14:45:26.028Z,102377.34
2023-04-19T14:47:52.712Z,102385.50
2023-04-19T14:50:20.022Z,102366.53
2023-04-19T14:52:48.816Z,102365.38
2023-04-19T14:55:15.422Z,102365.53
2023-04-19T14:57:42.033Z,102361.34
2023-04-19T15:00:09.603Z,102351.81
2023-04-19T15:02:37.474Z,102340.22
2023-04-19T15:05:04.670Z,102343.00
2023-04-19T15:07:31.555Z,102345.94
2023-04-19T15:09:58.531Z,102320.84
2023-04-19T15:12:27.530Z,102327.34
2023-04-19T15:14:56.408Z,102325.75
2023-04-19T15:17:23.083Z,102314.78
2023-04-19T15:19:52.014Z,102342.22
2023-04-19T15:22:18.822Z,102305.81
2023-04-19T15:24:47.797Z,102312.28
2023-04-19T15:27:16.861Z,102309.28
2023-04-19T15:29:43.488Z,102317.84
2023-04-19T15:32:12.204Z,102327.44
2023-04-19T15:34:38.817Z,102279.56
2023-04-19T15:37:08.786Z,102319.94
2023-04-19T15:39:35.505Z,102336.44
2023-04-19T15:42:03.169Z,102337.75
2023-04-19T15:44:32.299Z,102324.88
2023-04-19T15:46:58.995Z,102305.31
2023-04-19T15:49:27.935Z,102318.66
2023-04-19T15:51:57.163Z,102320.94
2023-04-19T15:54:23.841Z,102317.78
2023-04-19T15:56:52.698Z,102323.28
2023-04-19T15:59:19.239Z,102318.81
2023-04-19T16:01:46.893Z,102309.06
2023-04-19T16:04:13.810Z,102310.09
2023-04-19T16:06:40.828Z,102309.53
2023-04-19T16:09:09.962Z,102326.34
2023-04-19T16:11:36.647Z,102312.19
2023-04-19T16:14:03.244Z,102294.81
2023-04-19T16:16:34.374Z,102303.94
2023-04-19T16:19:03.689Z,102300.47
2023-04-19T16:21:32.642Z,102303.06
2023-04-19T16:24:01.486Z,102312.31
2023-04-19T16:26:28.150Z,102311.16
2023-04-19T16:28:57.129Z,102293.66
2023-04-19T16:31:28.552Z,102303.06
2023-04-19T16:33:55.347Z,102297.13
2023-04-19T16:36:22.161Z,102284.28
2023-04-19T16:38:51.358Z,102303.94
2023-04-19T16:41:18.030Z,102278.63
2023-04-19T16:43:44.841Z,102293.38
2023-04-19T16:46:11.454Z,102249.69
2023-04-19T16:48:40.724Z,102298.88
2023-04-19T16:51:07.310Z,102298.59
2023-04-19T16:53:36.136Z,102292.53
2023-04-19T16:56:03.693Z,102288.31
2023-04-19T16:58:32.421Z,102292.81
2023-04-19T17:01:02.683Z,102273.28
2023-04-19T17:03:32.332Z,102259.25
2023-04-19T17:05:59.146Z,102277.16
2023-04-19T17:08:26.626Z,102279.91
2023-04-19T17:10:53.246Z,102264.44
2023-04-19T17:13:22.906Z,102278.50
2023-04-19T17:15:51.843Z,102251.72
2023-04-19T17:18:18.635Z,102282.50
2023-04-19T17:20:45.753Z,102273.53
2023-04-19T17:23:12.426Z,102267.03
2023-04-19T17:25:41.556Z,102258.75
2023-04-19T17:28:10.429Z,102259.78
2023-04-19T17:30:37.103Z,102261.63
2023-04-19T17:33:06.349Z,102278.69
2023-04-19T17:35:33.045Z,102266.38
2023-04-19T17:38:01.833Z,102276.94
2023-04-19T17:40:29.551Z,102255.41
2023-04-19T17:42:56.513Z,102274.19
2023-04-19T17:45:25.007Z,102274.16
2023-04-19T17:47:55.747Z,102263.72
2023-04-19T17:50:22.819Z,102252.97
2023-04-19T17:52:49.471Z,102276.53
2023-04-19T17:55:16.194Z,102269.00
2023-04-19T17:57:46.079Z,102258.00
2023-04-19T18:00:13.596Z,102271.44
2023-04-19T18:02:40.854Z,102278.31
2023-04-19T18:05:08.012Z,102278.00
2023-04-19T18:07:37.485Z,102265.59
2023-04-19T18:10:04.445Z,102266.97
2023-04-19T18:12:31.102Z,102268.41
2023-04-19T18:14:59.901Z,102280.19
2023-04-19T18:17:26.637Z,102273.22
2023-04-19T18:19:53.476Z,102271.19
2023-04-19T18:22:20.030Z,102285.88
2023-04-19T18:24:47.390Z,102280.06
2023-04-19T18:27:17.354Z,102281.44
2023-04-19T18:29:44.061Z,102273.69
2023-04-19T18:32:10.831Z,102271.47
2023-04-19T18:34:42.562Z,102273.88
2023-04-19T18:37:15.404Z,102289.81
2023-04-19T18:39:42.572Z,102282.59
2023-04-19T18:42:11.676Z,102291.47
2023-04-19T18:44:53.566Z,102285.66
2023-04-19T18:47:21.315Z,102299.72
2023-04-19T18:50:03.735Z,102311.06
2023-04-19T18:52:31.717Z,102266.72
2023-04-19T18:54:58.494Z,102318.13
2023-04-19T18:57:27.621Z,102329.88
2023-04-19T18:59:56.898Z,102315.84
2023-04-19T19:02:23.663Z,102321.19
2023-04-19T19:04:58.510Z,102330.94
2023-04-19T19:07:36.161Z,102333.38
2023-04-19T19:10:16.910Z,102329.94
2023-04-19T19:12:47.521Z,102337.41
2023-04-19T19:15:14.726Z,102339.63
2023-04-19T19:17:41.441Z,102330.53
2023-04-19T19:20:13.392Z,102310.72
2023-04-19T19:22:40.362Z,102335.25
2023-04-19T19:25:07.342Z,102337.69
2023-04-19T19:27:35.324Z,102342.06
2023-04-19T19:30:03.530Z,102346.75
2023-04-19T19:32:32.485Z,102361.91
2023-04-19T19:35:02.401Z,102356.69
2023-04-19T19:37:30.528Z,102349.72
2023-04-19T19:39:57.103Z,102296.03
2023-04-19T19:42:26.594Z,102356.78
2023-04-19T19:44:55.110Z,102343.09
2023-04-19T19:47:24.040Z,102350.66
2023-04-19T19:50:33.581Z,102344.88
2023-04-19T19:52:37.575Z,102362.88
2023-04-19T19:55:04.514Z,102364.00
2023-04-19T20:00:17.936Z,102373.91
2023-04-19T20:05:21.781Z,102368.28
2023-04-19T20:10:19.778Z,102382.50
2023-04-19T20:12:47.325Z,102314.63
2023-04-19T20:15:14.106Z,102389.50
2023-04-19T20:17:41.490Z,102383.50
2023-04-19T20:20:09.110Z,102392.81
2023-04-19T20:22:35.847Z,102388.03
2023-04-19T20:25:03.735Z,102391.00
2023-04-19T20:27:30.840Z,102381.72
2023-04-19T20:29:57.552Z,102364.16
2023-04-19T20:32:24.850Z,102391.84
2023-04-19T20:34:52.169Z,102326.00
2023-04-19T20:37:19.179Z,102391.66
2023-04-19T20:39:47.959Z,102394.97
2023-04-19T20:42:14.863Z,102376.00
2023-04-19T20:44:44.574Z,102381.56
2023-04-19T20:47:13.396Z,102380.13
2023-04-19T20:49:40.310Z,102385.69
2023-04-19T20:52:07.511Z,102370.31
2023-04-19T20:54:36.647Z,102413.38
2023-04-19T20:57:04.824Z,102399.31
2023-04-19T20:59:31.659Z,102370.22
2023-04-19T21:01:59.737Z,102318.19
2023-04-19T21:04:31.726Z,102404.34
2023-04-19T21:07:00.425Z,102384.81
2023-04-19T21:09:30.359Z,102403.03
2023-04-19T21:11:58.573Z,102379.47
2023-04-19T21:14:25.393Z,102411.09
2023-04-19T21:16:52.102Z,102402.28
2023-04-19T21:19:19.039Z,102398.31
2023-04-19T21:21:46.368Z,102403.03
2023-04-19T21:24:13.452Z,102394.06
2023-04-19T21:26:40.357Z,102419.03
2023-04-19T21:29:07.255Z,102396.78
2023-04-19T21:31:36.393Z,102400.38
2023-04-19T21:34:06.241Z,102405.38
2023-04-19T21:36:35.631Z,102402.97
2023-04-19T21:39:02.723Z,102394.34
2023-04-19T21:41:32.728Z,102383.88
2023-04-19T21:43:59.903Z,102392.91
2023-04-19T21:46:27.066Z,102399.34
2023-04-19T21:48:56.302Z,102401.28
2023-04-19T21:51:23.239Z,102391.69
2023-04-19T21:53:50.977Z,102398.31
2023-04-19T21:56:18.756Z,102395.69
2023-04-19T21:58:45.627Z,102379.63
2023-04-19T22:01:12.704Z,102322.41
2023-04-19T22:03:39.883Z,102301.84
2023-04-19T22:06:14.069Z,102367.78
2023-04-19T22:08:41.907Z,102389.97
2023-04-19T22:11:12.090Z,102403.44
2023-04-19T22:13:38.983Z,102400.84
2023-04-19T22:16:08.690Z,102351.53
2023-04-19T22:18:41.484Z,102352.91
2023-04-19T22:21:11.179Z,102400.16
2023-04-19T22:23:38.248Z,102398.44
2023-04-19T22:26:07.385Z,102379.50
2023-04-19T22:28:36.055Z,102393.78
2023-04-19T22:31:07.672Z,102353.41
2023-04-19T22:33:40.295Z,102400.88
2023-04-19T22:36:10.260Z,102372.34
2023-04-19T22:38:41.999Z,102381.19
2023-04-19T22:41:09.160Z,102365.97
2023-04-19T22:43:36.044Z,102401.22
2023-04-19T22:46:02.788Z,102388.38
2023-04-19T22:48:30.265Z,102367.44
2023-04-19T22:50:57.033Z,102378.81
2023-04-19T22:53:24.034Z,102384.72
2023-04-19T22:55:53.349Z,102396.19
2023-04-19T22:58:20.191Z,102393.34
2023-04-19T23:00:47.380Z,102376.25
2023-04-19T23:03:16.813Z,102375.88
2023-04-19T23:05:44.481Z,102371.78
2023-04-19T23:08:12.958Z,102357.59
2023-04-19T23:10:42.412Z,102377.13
2023-04-19T23:13:10.618Z,102364.22
2023-04-19T23:15:39.394Z,102361.13
2023-04-19T23:18:08.539Z,102372.66
2023-04-19T23:20:35.907Z,102301.69
2023-04-19T23:23:05.389Z,102336.16
2023-04-19T23:25:32.253Z,102355.09
2023-04-19T23:27:58.927Z,102361.00
2023-04-19T23:30:29.599Z,102347.13
2023-04-19T23:32:56.510Z,102363.72
2023-04-19T23:35:23.498Z,102363.81
2023-04-19T23:37:50.669Z,102346.41
2023-04-19T23:40:20.710Z,102341.28
2023-04-19T23:42:47.572Z,102352.06
2023-04-19T23:45:14.357Z,102355.66
2023-04-19T23:47:41.389Z,102352.84
2023-04-19T23:50:11.136Z,102342.63
2023-04-19T23:52:40.137Z,102277.16
2023-04-19T23:55:07.226Z,102334.25
2023-04-19T23:57:35.973Z,102361.81
